Richmond Township, Michigan
Current Conditions -  °F | °C
As of 5:16 AM on Saturday 25 Oct 2014 (Local Time) from KPHN Reporting Station
Haze Haze  
Wind Chill: 45°   Ceiling: Unl
Heat Index: 45°   Visibility: 3mi
Dew Point: 45°   Wind: 0mph
Humidity: 100%   Direction: NA
Pressure: 29.86"   Gusts: NA
Location:  42.8496°N, 82.798°W
Report Text: KPHN 250916Z AUTO 00000KT 3SM BR CLR 07/07 A2986 RMK AO2
Loading
Personal Weather Stations






























Interactive Weather Map
Tropical Storm Tracking
New forecast layout! Learn more

10-Day Weather Forecast

Advertisements
Track Severe Weather on mobile